sensor_id;sensor_type;location;lat;lon;timestamp;temperature;humidity
74171;DHT22;62526;50.948;6.590;2024-03-08T00:00:01;8.70;82.80
74171;DHT22;62526;50.948;6.590;2024-03-08T00:02:29;8.60;82.70
74171;DHT22;62526;50.948;6.590;2024-03-08T00:04:56;8.60;82.90
74171;DHT22;62526;50.948;6.590;2024-03-08T00:07:22;8.60;83.00
74171;DHT22;62526;50.948;6.590;2024-03-08T00:09:49;8.70;83.00
74171;DHT22;62526;50.948;6.590;2024-03-08T00:12:16;8.60;82.70
74171;DHT22;62526;50.948;6.590;2024-03-08T00:14:42;8.70;82.60
74171;DHT22;62526;50.948;6.590;2024-03-08T00:17:09;8.70;82.60
74171;DHT22;62526;50.948;6.590;2024-03-08T00:19:35;8.70;82.50
74171;DHT22;62526;50.948;6.590;2024-03-08T00:22:02;8.60;82.30
74171;DHT22;62526;50.948;6.590;2024-03-08T00:24:29;8.50;82.70
74171;DHT22;62526;50.948;6.590;2024-03-08T00:26:56;8.50;82.70
74171;DHT22;62526;50.948;6.590;2024-03-08T00:29:22;8.50;82.90
74171;DHT22;62526;50.948;6.590;2024-03-08T00:31:49;8.40;83.00
74171;DHT22;62526;50.948;6.590;2024-03-08T00:34:16;8.40;82.90
74171;DHT22;62526;50.948;6.590;2024-03-08T00:36:43;8.40;83.10
74171;DHT22;62526;50.948;6.590;2024-03-08T00:39:10;8.40;83.00
74171;DHT22;62526;50.948;6.590;2024-03-08T00:41:37;8.40;83.40
74171;DHT22;62526;50.948;6.590;2024-03-08T00:44:04;8.30;83.30
74171;DHT22;62526;50.948;6.590;2024-03-08T00:46:30;8.30;83.60
74171;DHT22;62526;50.948;6.590;2024-03-08T00:48:57;8.20;83.60
74171;DHT22;62526;50.948;6.590;2024-03-08T00:51:23;8.10;84.10
74171;DHT22;62526;50.948;6.590;2024-03-08T00:53:50;8.10;84.40
74171;DHT22;62526;50.948;6.590;2024-03-08T00:56:17;8.10;83.80
74171;DHT22;62526;50.948;6.590;2024-03-08T00:58:44;8.10;84.50
74171;DHT22;62526;50.948;6.590;2024-03-08T01:01:12;8.10;84.60
74171;DHT22;62526;50.948;6.590;2024-03-08T01:03:37;8.10;84.30
74171;DHT22;62526;50.948;6.590;2024-03-08T01:06:04;8.00;84.60
74171;DHT22;62526;50.948;6.590;2024-03-08T01:08:31;8.00;84.20
74171;DHT22;62526;50.948;6.590;2024-03-08T01:10:57;8.10;84.80
74171;DHT22;62526;50.948;6.590;2024-03-08T01:13:24;8.00;84.40
74171;DHT22;62526;50.948;6.590;2024-03-08T01:15:51;7.90;83.90
74171;DHT22;62526;50.948;6.590;2024-03-08T01:18:17;7.90;84.50
74171;DHT22;62526;50.948;6.590;2024-03-08T01:20:44;7.90;83.90
74171;DHT22;62526;50.948;6.590;2024-03-08T01:23:11;7.90;84.60
74171;DHT22;62526;50.948;6.590;2024-03-08T01:25:37;7.90;84.70
74171;DHT22;62526;50.948;6.590;2024-03-08T01:28:05;7.90;84.60
74171;DHT22;62526;50.948;6.590;2024-03-08T01:30:31;7.80;85.00
74171;DHT22;62526;50.948;6.590;2024-03-08T01:32:58;7.80;84.70
74171;DHT22;62526;50.948;6.590;2024-03-08T01:35:25;7.80;84.60
74171;DHT22;62526;50.948;6.590;2024-03-08T01:37:51;7.80;84.60
74171;DHT22;62526;50.948;6.590;2024-03-08T01:40:18;7.80;85.10
74171;DHT22;62526;50.948;6.590;2024-03-08T01:42:45;7.80;84.80
74171;DHT22;62526;50.948;6.590;2024-03-08T01:45:12;7.80;84.90
74171;DHT22;62526;50.948;6.590;2024-03-08T01:47:39;7.70;85.20
74171;DHT22;62526;50.948;6.590;2024-03-08T01:50:06;7.70;85.10
74171;DHT22;62526;50.948;6.590;2024-03-08T01:52:33;7.60;85.50
74171;DHT22;62526;50.948;6.590;2024-03-08T01:55:00;7.60;85.00
74171;DHT22;62526;50.948;6.590;2024-03-08T01:57:27;7.70;85.00
74171;DHT22;62526;50.948;6.590;2024-03-08T01:59:53;7.70;85.30
74171;DHT22;62526;50.948;6.590;2024-03-08T02:02:20;7.70;85.20
74171;DHT22;62526;50.948;6.590;2024-03-08T02:04:47;7.70;84.90
74171;DHT22;62526;50.948;6.590;2024-03-08T02:07:13;7.70;85.00
74171;DHT22;62526;50.948;6.590;2024-03-08T02:09:40;7.70;84.80
74171;DHT22;62526;50.948;6.590;2024-03-08T02:12:07;7.70;85.00
74171;DHT22;62526;50.948;6.590;2024-03-08T02:14:34;7.60;85.00
74171;DHT22;62526;50.948;6.590;2024-03-08T02:17:02;7.60;85.50
74171;DHT22;62526;50.948;6.590;2024-03-08T02:19:28;7.50;85.20
74171;DHT22;62526;50.948;6.590;2024-03-08T02:21:55;7.40;85.60
74171;DHT22;62526;50.948;6.590;2024-03-08T02:24:22;7.40;85.80
74171;DHT22;62526;50.948;6.590;2024-03-08T02:26:48;7.50;85.90
74171;DHT22;62526;50.948;6.590;2024-03-08T02:29:16;7.50;85.90
74171;DHT22;62526;50.948;6.590;2024-03-08T02:31:42;7.50;85.70
74171;DHT22;62526;50.948;6.590;2024-03-08T02:34:09;7.50;85.90
74171;DHT22;62526;50.948;6.590;2024-03-08T02:36:36;7.50;86.00
74171;DHT22;62526;50.948;6.590;2024-03-08T02:39:03;7.30;86.20
74171;DHT22;62526;50.948;6.590;2024-03-08T02:41:29;7.30;86.60
74171;DHT22;62526;50.948;6.590;2024-03-08T02:43:56;7.40;86.90
74171;DHT22;62526;50.948;6.590;2024-03-08T02:46:23;7.30;87.30
74171;DHT22;62526;50.948;6.590;2024-03-08T02:48:49;7.40;86.60
74171;DHT22;62526;50.948;6.590;2024-03-08T02:51:16;7.30;86.80
74171;DHT22;62526;50.948;6.590;2024-03-08T02:53:43;7.30;86.90
74171;DHT22;62526;50.948;6.590;2024-03-08T02:56:09;7.40;86.40
74171;DHT22;62526;50.948;6.590;2024-03-08T02:58:36;7.30;86.60
74171;DHT22;62526;50.948;6.590;2024-03-08T03:01:03;7.30;86.50
74171;DHT22;62526;50.948;6.590;2024-03-08T03:03:30;7.30;86.60
74171;DHT22;62526;50.948;6.590;2024-03-08T03:05:57;7.30;86.50
74171;DHT22;62526;50.948;6.590;2024-03-08T03:08:24;7.40;86.70
74171;DHT22;62526;50.948;6.590;2024-03-08T03:10:50;7.40;82.90
74171;DHT22;62526;50.948;6.590;2024-03-08T03:13:17;7.30;87.50
74171;DHT22;62526;50.948;6.590;2024-03-08T03:15:43;7.30;86.80
74171;DHT22;62526;50.948;6.590;2024-03-08T03:18:10;7.30;86.70
74171;DHT22;62526;50.948;6.590;2024-03-08T03:20:37;7.20;86.50
74171;DHT22;62526;50.948;6.590;2024-03-08T03:23:06;7.30;87.00
74171;DHT22;62526;50.948;6.590;2024-03-08T03:25:33;7.30;86.50
74171;DHT22;62526;50.948;6.590;2024-03-08T03:27:59;7.30;86.50
74171;DHT22;62526;50.948;6.590;2024-03-08T03:30:26;7.30;86.60
74171;DHT22;62526;50.948;6.590;2024-03-08T03:32:53;7.30;86.50
74171;DHT22;62526;50.948;6.590;2024-03-08T03:35:20;7.40;86.50
74171;DHT22;62526;50.948;6.590;2024-03-08T03:37:47;7.30;86.80
74171;DHT22;62526;50.948;6.590;2024-03-08T03:40:17;7.20;86.80
74171;DHT22;62526;50.948;6.590;2024-03-08T03:42:44;7.20;86.80
74171;DHT22;62526;50.948;6.590;2024-03-08T03:45:11;7.20;87.10
74171;DHT22;62526;50.948;6.590;2024-03-08T03:47:37;7.30;86.80
74171;DHT22;62526;50.948;6.590;2024-03-08T03:50:05;7.20;86.80
74171;DHT22;62526;50.948;6.590;2024-03-08T03:52:32;5.90;83.80
74171;DHT22;62526;50.948;6.590;2024-03-08T03:54:58;7.20;87.20
74171;DHT22;62526;50.948;6.590;2024-03-08T03:57:25;7.10;87.10
74171;DHT22;62526;50.948;6.590;2024-03-08T03:59:52;7.20;87.10
74171;DHT22;62526;50.948;6.590;2024-03-08T04:02:18;7.20;86.70
74171;DHT22;62526;50.948;6.590;2024-03-08T04:04:45;7.20;86.70
74171;DHT22;62526;50.948;6.590;2024-03-08T04:07:12;7.20;86.80
74171;DHT22;62526;50.948;6.590;2024-03-08T04:09:39;7.30;86.90
74171;DHT22;62526;50.948;6.590;2024-03-08T04:12:06;7.30;85.10
74171;DHT22;62526;50.948;6.590;2024-03-08T04:14:32;7.30;86.80
74171;DHT22;62526;50.948;6.590;2024-03-08T04:16:59;7.20;87.10
74171;DHT22;62526;50.948;6.590;2024-03-08T04:19:26;7.10;87.20
74171;DHT22;62526;50.948;6.590;2024-03-08T04:21:53;7.20;87.10
74171;DHT22;62526;50.948;6.590;2024-03-08T04:24:19;7.10;87.00
74171;DHT22;62526;50.948;6.590;2024-03-08T04:26:46;7.10;87.20
74171;DHT22;62526;50.948;6.590;2024-03-08T04:29:13;7.10;88.20
74171;DHT22;62526;50.948;6.590;2024-03-08T04:31:40;7.10;87.20
74171;DHT22;62526;50.948;6.590;2024-03-08T04:34:06;7.10;87.00
74171;DHT22;62526;50.948;6.590;2024-03-08T04:36:37;7.00;86.90
74171;DHT22;62526;50.948;6.590;2024-03-08T04:39:06;7.10;87.40
74171;DHT22;62526;50.948;6.590;2024-03-08T04:41:33;7.00;87.20
74171;DHT22;62526;50.948;6.590;2024-03-08T04:44:00;7.10;87.40
74171;DHT22;62526;50.948;6.590;2024-03-08T04:46:26;7.10;87.30
74171;DHT22;62526;50.948;6.590;2024-03-08T04:48:53;7.10;87.20
74171;DHT22;62526;50.948;6.590;2024-03-08T04:51:19;7.10;87.30
74171;DHT22;62526;50.948;6.590;2024-03-08T04:53:47;7.00;87.40
74171;DHT22;62526;50.948;6.590;2024-03-08T04:56:13;7.00;87.30
74171;DHT22;62526;50.948;6.590;2024-03-08T04:58:40;7.00;87.50
74171;DHT22;62526;50.948;6.590;2024-03-08T05:01:07;7.00;87.60
74171;DHT22;62526;50.948;6.590;2024-03-08T05:03:33;7.00;87.20
74171;DHT22;62526;50.948;6.590;2024-03-08T05:06:00;7.00;87.20
74171;DHT22;62526;50.948;6.590;2024-03-08T05:08:27;7.00;87.60
74171;DHT22;62526;50.948;6.590;2024-03-08T05:10:53;6.90;87.60
74171;DHT22;62526;50.948;6.590;2024-03-08T05:13:20;7.00;87.40
74171;DHT22;62526;50.948;6.590;2024-03-08T05:15:49;6.90;87.30
74171;DHT22;62526;50.948;6.590;2024-03-08T05:18:16;7.00;87.60
74171;DHT22;62526;50.948;6.590;2024-03-08T05:20:42;6.90;87.30
74171;DHT22;62526;50.948;6.590;2024-03-08T05:23:09;7.00;87.40
74171;DHT22;62526;50.948;6.590;2024-03-08T05:25:36;6.90;87.70
74171;DHT22;62526;50.948;6.590;2024-03-08T05:28:02;6.90;87.40
74171;DHT22;62526;50.948;6.590;2024-03-08T05:30:29;6.90;87.50
74171;DHT22;62526;50.948;6.590;2024-03-08T05:32:56;7.00;87.30
74171;DHT22;62526;50.948;6.590;2024-03-08T05:35:22;6.90;87.40
74171;DHT22;62526;50.948;6.590;2024-03-08T05:37:49;6.90;87.10
74171;DHT22;62526;50.948;6.590;2024-03-08T05:40:16;6.90;87.40
74171;DHT22;62526;50.948;6.590;2024-03-08T05:42:42;6.90;87.30
74171;DHT22;62526;50.948;6.590;2024-03-08T05:45:09;6.90;87.40
74171;DHT22;62526;50.948;6.590;2024-03-08T05:47:36;6.90;87.60
74171;DHT22;62526;50.948;6.590;2024-03-08T05:50:03;6.90;87.50
74171;DHT22;62526;50.948;6.590;2024-03-08T05:52:30;6.90;88.20
74171;DHT22;62526;50.948;6.590;2024-03-08T05:54:56;6.90;87.40
74171;DHT22;62526;50.948;6.590;2024-03-08T05:57:23;6.90;87.30
74171;DHT22;62526;50.948;6.590;2024-03-08T05:59:49;6.80;87.60
74171;DHT22;62526;50.948;6.590;2024-03-08T06:02:16;6.80;87.70
74171;DHT22;62526;50.948;6.590;2024-03-08T06:04:43;6.80;87.60
74171;DHT22;62526;50.948;6.590;2024-03-08T06:07:10;6.90;87.40
74171;DHT22;62526;50.948;6.590;2024-03-08T06:09:36;6.90;87.20
74171;DHT22;62526;50.948;6.590;2024-03-08T06:12:04;6.90;87.60
74171;DHT22;62526;50.948;6.590;2024-03-08T06:14:31;6.90;87.40
74171;DHT22;62526;50.948;6.590;2024-03-08T06:16:57;7.00;87.30
74171;DHT22;62526;50.948;6.590;2024-03-08T06:19:24;6.90;87.80
74171;DHT22;62526;50.948;6.590;2024-03-08T06:21:50;6.90;87.60
74171;DHT22;62526;50.948;6.590;2024-03-08T06:24:17;6.90;87.70
74171;DHT22;62526;50.948;6.590;2024-03-08T06:26:44;6.80;88.00
74171;DHT22;62526;50.948;6.590;2024-03-08T06:29:10;6.80;87.70
74171;DHT22;62526;50.948;6.590;2024-03-08T06:31:37;6.80;87.80
74171;DHT22;62526;50.948;6.590;2024-03-08T06:34:04;6.90;88.10
74171;DHT22;62526;50.948;6.590;2024-03-08T06:36:30;7.00;87.90
74171;DHT22;62526;50.948;6.590;2024-03-08T06:38:57;7.00;88.00
74171;DHT22;62526;50.948;6.590;2024-03-08T06:41:24;7.00;88.10
74171;DHT22;62526;50.948;6.590;2024-03-08T06:43:51;7.00;88.00
74171;DHT22;62526;50.948;6.590;2024-03-08T06:46:18;7.00;88.20
74171;DHT22;62526;50.948;6.590;2024-03-08T06:48:44;7.00;87.80
74171;DHT22;62526;50.948;6.590;2024-03-08T06:51:12;7.10;87.90
74171;DHT22;62526;50.948;6.590;2024-03-08T06:53:39;7.10;88.00
74171;DHT22;62526;50.948;6.590;2024-03-08T06:56:05;7.20;87.90
74171;DHT22;62526;50.948;6.590;2024-03-08T06:58:32;7.20;87.80
74171;DHT22;62526;50.948;6.590;2024-03-08T07:00:59;7.20;87.70
74171;DHT22;62526;50.948;6.590;2024-03-08T07:03:26;7.30;87.90
74171;DHT22;62526;50.948;6.590;2024-03-08T07:05:52;7.20;88.10
74171;DHT22;62526;50.948;6.590;2024-03-08T07:08:19;7.30;88.10
74171;DHT22;62526;50.948;6.590;2024-03-08T07:10:46;7.30;88.00
74171;DHT22;62526;50.948;6.590;2024-03-08T07:13:13;7.30;88.10
74171;DHT22;62526;50.948;6.590;2024-03-08T07:15:39;7.40;88.20
74171;DHT22;62526;50.948;6.590;2024-03-08T07:18:07;7.40;88.40
74171;DHT22;62526;50.948;6.590;2024-03-08T07:20:33;7.40;88.30
74171;DHT22;62526;50.948;6.590;2024-03-08T07:23:00;7.40;87.60
74171;DHT22;62526;50.948;6.590;2024-03-08T07:25:27;7.50;88.50
74171;DHT22;62526;50.948;6.590;2024-03-08T07:27:54;7.50;88.00
74171;DHT22;62526;50.948;6.590;2024-03-08T07:30:21;7.60;88.20
74171;DHT22;62526;50.948;6.590;2024-03-08T07:32:53;7.80;88.00
74171;DHT22;62526;50.948;6.590;2024-03-08T07:35:19;7.60;86.80
74171;DHT22;62526;50.948;6.590;2024-03-08T07:37:46;7.70;87.50
74171;DHT22;62526;50.948;6.590;2024-03-08T07:40:13;7.80;87.80
74171;DHT22;62526;50.948;6.590;2024-03-08T07:42:39;7.80;87.40
74171;DHT22;62526;50.948;6.590;2024-03-08T07:45:06;7.90;87.50
74171;DHT22;62526;50.948;6.590;2024-03-08T07:47:33;8.00;87.60
74171;DHT22;62526;50.948;6.590;2024-03-08T07:50:00;8.00;87.30
74171;DHT22;62526;50.948;6.590;2024-03-08T07:52:28;8.00;87.50
74171;DHT22;62526;50.948;6.590;2024-03-08T07:54:55;8.20;87.70
74171;DHT22;62526;50.948;6.590;2024-03-08T07:57:22;8.20;87.70
74171;DHT22;62526;50.948;6.590;2024-03-08T07:59:49;8.20;87.90
74171;DHT22;62526;50.948;6.590;2024-03-08T08:02:16;8.20;87.10
74171;DHT22;62526;50.948;6.590;2024-03-08T08:04:43;8.30;87.50
74171;DHT22;62526;50.948;6.590;2024-03-08T08:07:10;8.40;87.20
74171;DHT22;62526;50.948;6.590;2024-03-08T08:09:37;8.40;87.00
74171;DHT22;62526;50.948;6.590;2024-03-08T08:12:05;8.40;86.80
74171;DHT22;62526;50.948;6.590;2024-03-08T08:14:32;8.50;87.10
74171;DHT22;62526;50.948;6.590;2024-03-08T08:16:59;8.60;87.60
74171;DHT22;62526;50.948;6.590;2024-03-08T08:19:26;8.60;87.80
74171;DHT22;62526;50.948;6.590;2024-03-08T08:21:52;8.70;87.10
74171;DHT22;62526;50.948;6.590;2024-03-08T08:24:20;8.80;86.30
74171;DHT22;62526;50.948;6.590;2024-03-08T08:26:47;8.90;86.50
74171;DHT22;62526;50.948;6.590;2024-03-08T08:29:14;8.80;86.40
74171;DHT22;62526;50.948;6.590;2024-03-08T08:31:40;8.80;86.10
74171;DHT22;62526;50.948;6.590;2024-03-08T08:34:08;8.90;86.20
74171;DHT22;62526;50.948;6.590;2024-03-08T08:36:34;8.90;85.90
74171;DHT22;62526;50.948;6.590;2024-03-08T08:39:00;9.00;86.60
74171;DHT22;62526;50.948;6.590;2024-03-08T08:41:27;9.20;86.80
74171;DHT22;62526;50.948;6.590;2024-03-08T08:43:54;9.30;87.10
74171;DHT22;62526;50.948;6.590;2024-03-08T08:46:21;9.30;86.90
74171;DHT22;62526;50.948;6.590;2024-03-08T08:48:48;9.30;87.40
74171;DHT22;62526;50.948;6.590;2024-03-08T08:51:16;9.50;86.10
74171;DHT22;62526;50.948;6.590;2024-03-08T08:53:42;9.50;85.90
74171;DHT22;62526;50.948;6.590;2024-03-08T08:56:09;9.70;85.40
74171;DHT22;62526;50.948;6.590;2024-03-08T08:58:36;9.70;85.40
74171;DHT22;62526;50.948;6.590;2024-03-08T09:01:03;9.70;84.50
74171;DHT22;62526;50.948;6.590;2024-03-08T09:03:45;9.80;86.10
74171;DHT22;62526;50.948;6.590;2024-03-08T09:06:21;9.90;85.80
74171;DHT22;62526;50.948;6.590;2024-03-08T09:08:48;9.90;85.10
74171;DHT22;62526;50.948;6.590;2024-03-08T09:11:14;10.00;83.90
74171;DHT22;62526;50.948;6.590;2024-03-08T09:13:43;10.10;85.30
74171;DHT22;62526;50.948;6.590;2024-03-08T09:16:08;10.10;83.70
74171;DHT22;62526;50.948;6.590;2024-03-08T09:18:35;10.20;83.50
74171;DHT22;62526;50.948;6.590;2024-03-08T09:21:02;10.30;83.50
74171;DHT22;62526;50.948;6.590;2024-03-08T09:23:29;10.40;83.80
74171;DHT22;62526;50.948;6.590;2024-03-08T09:25:57;10.50;83.60
74171;DHT22;62526;50.948;6.590;2024-03-08T09:28:24;10.50;83.60
74171;DHT22;62526;50.948;6.590;2024-03-08T09:30:51;10.60;83.20
74171;DHT22;62526;50.948;6.590;2024-03-08T09:33:18;10.50;82.40
74171;DHT22;62526;50.948;6.590;2024-03-08T09:35:45;10.60;82.40
74171;DHT22;62526;50.948;6.590;2024-03-08T09:38:13;10.60;82.60
74171;DHT22;62526;50.948;6.590;2024-03-08T09:40:42;10.50;82.50
74171;DHT22;62526;50.948;6.590;2024-03-08T09:43:09;10.50;82.50
74171;DHT22;62526;50.948;6.590;2024-03-08T09:45:36;10.60;81.80
74171;DHT22;62526;50.948;6.590;2024-03-08T09:48:04;10.70;79.00
74171;DHT22;62526;50.948;6.590;2024-03-08T09:50:31;10.70;81.00
74171;DHT22;62526;50.948;6.590;2024-03-08T09:52:57;10.90;81.50
74171;DHT22;62526;50.948;6.590;2024-03-08T09:55:24;11.00;82.20
74171;DHT22;62526;50.948;6.590;2024-03-08T09:57:51;11.20;82.00
74171;DHT22;62526;50.948;6.590;2024-03-08T10:00:35;11.30;82.70
74171;DHT22;62526;50.948;6.590;2024-03-08T10:03:02;11.50;81.80
74171;DHT22;62526;50.948;6.590;2024-03-08T10:05:30;11.80;81.90
74171;DHT22;62526;50.948;6.590;2024-03-08T10:07:58;11.90;79.70
74171;DHT22;62526;50.948;6.590;2024-03-08T10:10:23;11.90;80.30
74171;DHT22;62526;50.948;6.590;2024-03-08T10:12:50;12.00;80.40
74171;DHT22;62526;50.948;6.590;2024-03-08T10:15:17;12.10;80.40
74171;DHT22;62526;50.948;6.590;2024-03-08T10:17:44;12.20;79.50
74171;DHT22;62526;50.948;6.590;2024-03-08T10:20:14;12.40;80.90
74171;DHT22;62526;50.948;6.590;2024-03-08T10:22:41;12.50;79.40
74171;DHT22;62526;50.948;6.590;2024-03-08T10:25:11;12.50;78.60
74171;DHT22;62526;50.948;6.590;2024-03-08T10:27:38;12.50;76.50
74171;DHT22;62526;50.948;6.590;2024-03-08T10:30:06;12.50;76.40
74171;DHT22;62526;50.948;6.590;2024-03-08T10:32:33;12.60;76.50
74171;DHT22;62526;50.948;6.590;2024-03-08T10:35:00;12.70;76.00
74171;DHT22;62526;50.948;6.590;2024-03-08T10:37:26;12.70;76.50
74171;DHT22;62526;50.948;6.590;2024-03-08T10:40:00;12.70;76.20
74171;DHT22;62526;50.948;6.590;2024-03-08T10:42:21;12.80;75.90
74171;DHT22;62526;50.948;6.590;2024-03-08T10:44:53;12.80;75.50
74171;DHT22;62526;50.948;6.590;2024-03-08T10:47:18;12.90;74.70
74171;DHT22;62526;50.948;6.590;2024-03-08T10:50:18;13.10;75.20
74171;DHT22;62526;50.948;6.590;2024-03-08T10:52:27;13.30;75.50
74171;DHT22;62526;50.948;6.590;2024-03-08T10:54:54;13.30;75.50
74171;DHT22;62526;50.948;6.590;2024-03-08T10:57:21;13.40;74.80
74171;DHT22;62526;50.948;6.590;2024-03-08T10:59:47;13.50;74.30
74171;DHT22;62526;50.948;6.590;2024-03-08T11:02:16;13.70;75.50
74171;DHT22;62526;50.948;6.590;2024-03-08T11:04:46;13.80;74.60
74171;DHT22;62526;50.948;6.590;2024-03-08T11:07:13;14.00;71.90
74171;DHT22;62526;50.948;6.590;2024-03-08T11:09:39;14.00;72.00
74171;DHT22;62526;50.948;6.590;2024-03-08T11:12:22;14.10;73.50
74171;DHT22;62526;50.948;6.590;2024-03-08T11:14:49;14.30;74.90
74171;DHT22;62526;50.948;6.590;2024-03-08T11:17:20;14.20;74.80
74171;DHT22;62526;50.948;6.590;2024-03-08T11:19:46;14.50;71.60
74171;DHT22;62526;50.948;6.590;2024-03-08T11:22:20;14.50;71.60
74171;DHT22;62526;50.948;6.590;2024-03-08T11:24:39;14.30;70.60
74171;DHT22;62526;50.948;6.590;2024-03-08T11:27:06;14.30;70.40
74171;DHT22;62526;50.948;6.590;2024-03-08T11:29:33;14.30;70.60
74171;DHT22;62526;50.948;6.590;2024-03-08T11:32:10;14.40;69.80
74171;DHT22;62526;50.948;6.590;2024-03-08T11:34:36;14.40;70.10
74171;DHT22;62526;50.948;6.590;2024-03-08T11:37:04;14.50;70.10
74171;DHT22;62526;50.948;6.590;2024-03-08T11:39:31;14.60;69.60
74171;DHT22;62526;50.948;6.590;2024-03-08T11:41:57;14.70;71.90
74171;DHT22;62526;50.948;6.590;2024-03-08T11:44:26;14.80;69.30
74171;DHT22;62526;50.948;6.590;2024-03-08T11:46:51;15.00;68.80
74171;DHT22;62526;50.948;6.590;2024-03-08T11:49:18;15.00;68.70
74171;DHT22;62526;50.948;6.590;2024-03-08T11:51:45;15.00;68.80
74171;DHT22;62526;50.948;6.590;2024-03-08T11:54:12;15.00;68.20
74171;DHT22;62526;50.948;6.590;2024-03-08T11:56:39;15.10;69.00
74171;DHT22;62526;50.948;6.590;2024-03-08T11:59:05;15.20;67.70
74171;DHT22;62526;50.948;6.590;2024-03-08T12:01:32;15.30;67.90
74171;DHT22;62526;50.948;6.590;2024-03-08T12:03:59;15.10;68.10
74171;DHT22;62526;50.948;6.590;2024-03-08T12:06:27;15.20;67.10
74171;DHT22;62526;50.948;6.590;2024-03-08T12:08:53;15.20;67.00
74171;DHT22;62526;50.948;6.590;2024-03-08T12:11:21;15.40;69.40
74171;DHT22;62526;50.948;6.590;2024-03-08T12:13:49;15.40;67.80
74171;DHT22;62526;50.948;6.590;2024-03-08T12:16:17;15.60;67.70
74171;DHT22;62526;50.948;6.590;2024-03-08T12:18:44;15.60;67.60
74171;DHT22;62526;50.948;6.590;2024-03-08T12:21:12;15.70;66.00
74171;DHT22;62526;50.948;6.590;2024-03-08T12:23:41;15.70;66.60
74171;DHT22;62526;50.948;6.590;2024-03-08T12:26:11;15.70;67.70
74171;DHT22;62526;50.948;6.590;2024-03-08T12:28:37;15.70;67.10
74171;DHT22;62526;50.948;6.590;2024-03-08T12:31:03;15.80;67.90
74171;DHT22;62526;50.948;6.590;2024-03-08T12:33:30;16.00;67.00
74171;DHT22;62526;50.948;6.590;2024-03-08T12:35:57;16.10;67.80
74171;DHT22;62526;50.948;6.590;2024-03-08T12:38:24;16.40;68.10
74171;DHT22;62526;50.948;6.590;2024-03-08T12:40:54;16.50;68.00
74171;DHT22;62526;50.948;6.590;2024-03-08T12:43:18;16.60;65.00
74171;DHT22;62526;50.948;6.590;2024-03-08T12:45:44;16.70;65.60
74171;DHT22;62526;50.948;6.590;2024-03-08T12:48:13;16.60;66.30
74171;DHT22;62526;50.948;6.590;2024-03-08T12:50:40;16.60;66.70
74171;DHT22;62526;50.948;6.590;2024-03-08T12:53:06;16.70;66.70
74171;DHT22;62526;50.948;6.590;2024-03-08T12:55:33;16.80;66.00
74171;DHT22;62526;50.948;6.590;2024-03-08T12:58:00;17.00;65.00
74171;DHT22;62526;50.948;6.590;2024-03-08T13:00:26;17.10;65.10
74171;DHT22;62526;50.948;6.590;2024-03-08T13:02:53;17.00;64.50
74171;DHT22;62526;50.948;6.590;2024-03-08T13:05:20;17.10;63.80
74171;DHT22;62526;50.948;6.590;2024-03-08T13:07:47;17.10;64.30
74171;DHT22;62526;50.948;6.590;2024-03-08T13:10:13;17.00;65.00
74171;DHT22;62526;50.948;6.590;2024-03-08T13:12:43;17.00;64.20
74171;DHT22;62526;50.948;6.590;2024-03-08T13:15:10;17.20;63.80
74171;DHT22;62526;50.948;6.590;2024-03-08T13:17:37;17.40;62.10
74171;DHT22;62526;50.948;6.590;2024-03-08T13:20:04;17.60;64.30
74171;DHT22;62526;50.948;6.590;2024-03-08T13:22:31;17.70;62.00
74171;DHT22;62526;50.948;6.590;2024-03-08T13:24:58;17.80;63.60
74171;DHT22;62526;50.948;6.590;2024-03-08T13:27:25;18.10;59.30
74171;DHT22;62526;50.948;6.590;2024-03-08T13:29:52;18.60;63.10
74171;DHT22;62526;50.948;6.590;2024-03-08T13:32:19;18.60;63.10
74171;DHT22;62526;50.948;6.590;2024-03-08T13:34:48;18.90;60.40
74171;DHT22;62526;50.948;6.590;2024-03-08T13:37:15;18.90;57.80
74171;DHT22;62526;50.948;6.590;2024-03-08T13:39:42;18.90;57.70
74171;DHT22;62526;50.948;6.590;2024-03-08T13:42:11;19.40;59.00
74171;DHT22;62526;50.948;6.590;2024-03-08T13:44:37;19.40;58.40
74171;DHT22;62526;50.948;6.590;2024-03-08T13:47:04;19.80;59.40
74171;DHT22;62526;50.948;6.590;2024-03-08T13:49:31;20.10;58.80
74171;DHT22;62526;50.948;6.590;2024-03-08T13:51:57;20.40;55.10
74171;DHT22;62526;50.948;6.590;2024-03-08T13:54:24;20.40;55.60
74171;DHT22;62526;50.948;6.590;2024-03-08T13:56:50;20.30;56.00
74171;DHT22;62526;50.948;6.590;2024-03-08T13:59:17;20.50;55.50
74171;DHT22;62526;50.948;6.590;2024-03-08T14:01:44;21.00;54.20
74171;DHT22;62526;50.948;6.590;2024-03-08T14:04:12;21.20;53.30
74171;DHT22;62526;50.948;6.590;2024-03-08T14:06:38;21.30;54.80
74171;DHT22;62526;50.948;6.590;2024-03-08T14:09:05;21.40;54.80
74171;DHT22;62526;50.948;6.590;2024-03-08T14:11:32;21.70;54.80
74171;DHT22;62526;50.948;6.590;2024-03-08T14:13:59;21.90;54.30
74171;DHT22;62526;50.948;6.590;2024-03-08T14:16:27;21.50;53.20
74171;DHT22;62526;50.948;6.590;2024-03-08T14:18:54;21.10;54.00
74171;DHT22;62526;50.948;6.590;2024-03-08T14:21:21;21.40;53.40
74171;DHT22;62526;50.948;6.590;2024-03-08T14:23:48;21.60;53.40
74171;DHT22;62526;50.948;6.590;2024-03-08T14:26:16;21.70;53.40
74171;DHT22;62526;50.948;6.590;2024-03-08T14:28:44;20.90;53.60
74171;DHT22;62526;50.948;6.590;2024-03-08T14:31:11;20.30;54.50
74171;DHT22;62526;50.948;6.590;2024-03-08T14:33:38;20.40;55.40
74171;DHT22;62526;50.948;6.590;2024-03-08T14:36:05;20.80;53.70
74171;DHT22;62526;50.948;6.590;2024-03-08T14:38:33;21.00;55.20
74171;DHT22;62526;50.948;6.590;2024-03-08T14:41:00;21.20;54.50
74171;DHT22;62526;50.948;6.590;2024-03-08T14:43:27;21.40;52.60
74171;DHT22;62526;50.948;6.590;2024-03-08T14:45:54;21.50;52.70
74171;DHT22;62526;50.948;6.590;2024-03-08T14:48:21;21.70;53.20
74171;DHT22;62526;50.948;6.590;2024-03-08T14:50:48;21.40;52.70
74171;DHT22;62526;50.948;6.590;2024-03-08T14:53:14;21.30;52.90
74171;DHT22;62526;50.948;6.590;2024-03-08T14:55:42;21.40;52.00
74171;DHT22;62526;50.948;6.590;2024-03-08T14:58:10;21.60;52.50
74171;DHT22;62526;50.948;6.590;2024-03-08T15:00:37;21.90;52.10
74171;DHT22;62526;50.948;6.590;2024-03-08T15:03:04;21.70;51.80
74171;DHT22;62526;50.948;6.590;2024-03-08T15:05:32;21.60;53.00
74171;DHT22;62526;50.948;6.590;2024-03-08T15:07:59;21.70;54.10
74171;DHT22;62526;50.948;6.590;2024-03-08T15:10:27;21.70;53.90
74171;DHT22;62526;50.948;6.590;2024-03-08T15:12:55;22.00;52.10
74171;DHT22;62526;50.948;6.590;2024-03-08T15:15:22;22.40;51.30
74171;DHT22;62526;50.948;6.590;2024-03-08T15:17:50;22.10;51.70
74171;DHT22;62526;50.948;6.590;2024-03-08T15:20:17;22.10;51.80
74171;DHT22;62526;50.948;6.590;2024-03-08T15:22:46;22.10;51.20
74171;DHT22;62526;50.948;6.590;2024-03-08T15:25:14;22.10;49.30
74171;DHT22;62526;50.948;6.590;2024-03-08T15:27:44;21.90;49.90
74171;DHT22;62526;50.948;6.590;2024-03-08T15:30:12;21.60;51.20
74171;DHT22;62526;50.948;6.590;2024-03-08T15:32:43;21.40;50.30
74171;DHT22;62526;50.948;6.590;2024-03-08T15:35:06;21.20;51.30
74171;DHT22;62526;50.948;6.590;2024-03-08T15:37:34;20.90;52.10